Time;durP1;ratioP1;P1;durP2;ratioP2;P2;SDS_P1;SDS_P2;PMS_P1;PMS_P2;Temp;Humidity;BMP_temperature;BMP_pressure;BME280_temperature;BME280_humidity;BME280_pressure;Samples;Min_cycle;Max_cycle;Signal;HPM_P1;HPM_P2
2023/01/10 00:01:13;;;;;;;6.83;4.60;;;;;;;;;;5075206;28;20172;-54
2023/01/10 00:03:39;;;;;;;6.70;4.60;;;;;;;;;;5083953;28;20186;-53
2023/01/10 00:06:05;;;;;;;7.63;5.13;;;;;;;;;;5082148;28;20203;-53
2023/01/10 00:08:31;;;;;;;9.97;5.27;;;;;;;;;;5081959;28;20693;-53
2023/01/10 00:10:57;;;;;;;7.53;5.07;;;;;;;;;;5084918;28;20267;-53
2023/01/10 00:13:23;;;;;;;7.17;5.07;;;;;;;;;;5082935;28;20641;-53
2023/01/10 00:15:50;;;;;;;7.13;4.77;;;;;;;;;;5083268;28;20195;-53
2023/01/10 00:18:16;;;;;;;7.10;5.00;;;;;;;;;;5083988;28;20192;-53
2023/01/10 00:20:46;;;;;;;6.97;5.37;;;;;;;;;;5074142;28;20180;-53
2023/01/10 00:23:12;;;;;;;7.10;4.90;;;;;;;;;;5077155;28;20523;-53
2023/01/10 00:25:38;;;;;;;10.27;4.93;;;;;;;;;;5079117;28;20344;-53
2023/01/10 00:28:18;;;;;;;6.30;4.80;;;;;;;;;;5083861;28;20218;-53
2023/01/10 00:30:47;;;;;;;7.63;4.33;;;;;;;;;;5071227;28;20175;-54
2023/01/10 00:33:19;;;;;;;11.07;5.30;;;;;;;;;;5074845;28;20183;-53
2023/01/10 00:35:46;;;;;;;8.53;3.93;;;;;;;;;;5076781;28;20177;-53
2023/01/10 00:38:12;;;;;;;7.60;4.43;;;;;;;;;;5082201;28;20190;-53
2023/01/10 00:40:38;;;;;;;7.07;4.47;;;;;;;;;;5074687;28;20700;-53
2023/01/10 00:45:49;;;;;;;6.40;4.23;;;;;;;;;;5067943;28;20206;-53
2023/01/10 00:48:16;;;;;;;4.93;3.67;;;;;;;;;;5082025;28;20180;-53
2023/01/10 00:50:42;;;;;;;7.43;3.93;;;;;;;;;;5084740;28;20176;-53
2023/01/10 00:53:09;;;;;;;5.40;3.43;;;;;;;;;;5082229;28;20614;-53
2023/01/10 00:55:35;;;;;;;8.20;5.07;;;;;;;;;;5089061;28;20152;-53
2023/01/10 00:58:02;;;;;;;8.43;3.83;;;;;;;;;;5077744;28;20233;-53
2023/01/10 01:00:28;;;;;;;5.90;4.00;;;;;;;;;;5086406;28;20198;-53
2023/01/10 01:02:54;;;;;;;6.10;4.30;;;;;;;;;;5068987;28;20274;-53
2023/01/10 01:05:20;;;;;;;7.43;4.13;;;;;;;;;;5081381;28;20559;-52
2023/01/10 01:07:47;;;;;;;6.23;4.63;;;;;;;;;;5083074;28;20172;-53
2023/01/10 01:10:26;;;;;;;7.83;4.93;;;;;;;;;;5086245;28;20168;-53
2023/01/10 01:12:52;;;;;;;9.93;4.87;;;;;;;;;;5083560;28;20534;-53
2023/01/10 01:15:19;;;;;;;6.07;4.20;;;;;;;;;;5085824;28;20275;-53
2023/01/10 01:17:46;;;;;;;5.50;4.13;;;;;;;;;;5080100;28;20207;-53
2023/01/10 01:20:12;;;;;;;12.67;4.67;;;;;;;;;;5088596;28;20523;-53
2023/01/10 01:22:38;;;;;;;4.23;3.83;;;;;;;;;;5064868;28;20290;-53
2023/01/10 01:25:04;;;;;;;7.40;3.90;;;;;;;;;;5087727;28;20333;-53
2023/01/10 01:27:31;;;;;;;5.97;4.20;;;;;;;;;;5077703;27;20216;-53
2023/01/10 01:29:57;;;;;;;5.53;4.13;;;;;;;;;;5073857;28;20178;-53
2023/01/10 01:32:23;;;;;;;7.87;3.97;;;;;;;;;;5057110;28;20210;-53
2023/01/10 01:34:49;;;;;;;5.73;4.23;;;;;;;;;;5066824;28;20191;-53
2023/01/10 01:37:18;;;;;;;5.23;3.77;;;;;;;;;;5066510;28;20929;-53
2023/01/10 01:39:45;;;;;;;6.40;4.27;;;;;;;;;;5066382;28;20248;-53
2023/01/10 01:42:20;;;;;;;7.43;4.40;;;;;;;;;;5067469;28;20259;-53
2023/01/10 01:45:06;;;;;;;5.77;3.50;;;;;;;;;;5068282;28;20212;-53
2023/01/10 01:47:33;;;;;;;6.93;3.70;;;;;;;;;;5064718;28;20180;-53
2023/01/10 01:49:59;;;;;;;7.60;3.30;;;;;;;;;;5062917;28;20969;-53
2023/01/10 01:52:28;;;;;;;8.33;3.50;;;;;;;;;;5064811;28;20208;-53
2023/01/10 01:54:57;;;;;;;7.23;3.90;;;;;;;;;;5048358;28;20180;-53
2023/01/10 01:57:24;;;;;;;6.77;3.57;;;;;;;;;;5070155;28;20212;-53
2023/01/10 01:59:51;;;;;;;6.60;3.47;;;;;;;;;;5068202;28;20212;-52
2023/01/10 02:02:19;;;;;;;6.70;4.30;;;;;;;;;;5069560;28;20177;-53
2023/01/10 02:04:49;;;;;;;5.33;3.17;;;;;;;;;;5047194;28;20693;-53
2023/01/10 02:07:15;;;;;;;5.37;3.00;;;;;;;;;;5065121;28;20259;-53
2023/01/10 02:09:41;;;;;;;5.93;3.50;;;;;;;;;;5050240;28;20160;-53
2023/01/10 02:12:09;;;;;;;6.00;3.13;;;;;;;;;;5065113;28;20695;-53
2023/01/10 02:14:35;;;;;;;5.17;3.03;;;;;;;;;;5048694;28;20695;-53
2023/01/10 02:17:01;;;;;;;4.23;2.93;;;;;;;;;;5065579;28;20204;-53
2023/01/10 02:19:42;;;;;;;4.20;2.87;;;;;;;;;;5072145;28;20180;-53
2023/01/10 02:22:37;;;;;;;5.60;3.20;;;;;;;;;;5065909;28;20195;-53
2023/01/10 02:25:18;;;;;;;4.73;3.30;;;;;;;;;;5052893;28;20188;-53
2023/01/10 02:27:59;;;;;;;2.93;2.60;;;;;;;;;;5048995;28;20315;-53
2023/01/10 02:30:44;;;;;;;7.37;3.33;;;;;;;;;;5064274;28;20683;-52
2023/01/10 02:33:29;;;;;;;7.17;3.33;;;;;;;;;;5066345;28;20713;-53
2023/01/10 02:36:03;;;;;;;4.00;2.67;;;;;;;;;;5062908;28;20642;-53
2023/01/10 02:38:36;;;;;;;6.23;2.70;;;;;;;;;;5058539;28;20196;-52
2023/01/10 02:41:14;;;;;;;6.83;2.97;;;;;;;;;;5061858;28;20180;-53
2023/01/10 02:43:45;;;;;;;6.43;2.90;;;;;;;;;;5063780;28;20385;-53
2023/01/10 02:46:31;;;;;;;5.20;2.73;;;;;;;;;;5063905;28;20200;-53
2023/01/10 02:48:57;;;;;;;4.57;2.90;;;;;;;;;;5062538;28;20627;-53
2023/01/10 02:51:27;;;;;;;3.23;2.90;;;;;;;;;;5065989;28;21052;-53
2023/01/10 02:53:57;;;;;;;7.83;3.13;;;;;;;;;;5064315;28;20263;-53
2023/01/10 02:56:26;;;;;;;5.60;2.93;;;;;;;;;;5064833;28;20270;-53
2023/01/10 02:58:55;;;;;;;6.70;2.53;;;;;;;;;;5064221;28;20716;-53
2023/01/10 03:01:40;;;;;;;4.33;2.47;;;;;;;;;;5065886;28;20259;-53
2023/01/10 03:04:12;;;;;;;4.30;2.37;;;;;;;;;;5064970;28;20215;-53
2023/01/10 03:06:47;;;;;;;3.70;2.70;;;;;;;;;;5066568;28;20172;-53
2023/01/10 03:09:13;;;;;;;7.53;2.63;;;;;;;;;;5062133;28;20247;-53
2023/01/10 03:11:42;;;;;;;5.07;2.73;;;;;;;;;;5064834;28;20259;-53
2023/01/10 03:14:25;;;;;;;4.53;2.90;;;;;;;;;;5061847;28;20199;-53
2023/01/10 03:16:56;;;;;;;6.43;3.00;;;;;;;;;;5059547;28;20455;-53
2023/01/10 03:19:23;;;;;;;4.13;2.50;;;;;;;;;;5063567;28;20176;-53
2023/01/10 03:21:54;;;;;;;4.83;2.70;;;;;;;;;;5065552;28;20168;-53
2023/01/10 03:24:24;;;;;;;4.43;2.43;;;;;;;;;;5062996;28;20208;-53
2023/01/10 03:26:57;;;;;;;4.87;2.50;;;;;;;;;;5067583;27;20189;-53
2023/01/10 03:29:29;;;;;;;8.83;2.60;;;;;;;;;;5082786;28;20168;-53
2023/01/10 03:31:56;;;;;;;6.33;3.03;;;;;;;;;;5084379;28;20258;-53
2023/01/10 03:34:23;;;;;;;5.10;2.63;;;;;;;;;;5080623;28;20175;-53
2023/01/10 03:36:57;;;;;;;4.07;2.53;;;;;;;;;;5084968;28;20175;-53
2023/01/10 03:39:34;;;;;;;5.93;2.37;;;;;;;;;;5080917;28;20654;-53
2023/01/10 03:42:20;;;;;;;4.13;2.50;;;;;;;;;;5085014;28;20175;-53
2023/01/10 03:45:07;;;;;;;4.13;2.83;;;;;;;;;;5083714;28;20231;-53
2023/01/10 03:47:45;;;;;;;4.23;2.63;;;;;;;;;;5077599;28;20225;-53
2023/01/10 03:50:14;;;;;;;3.87;2.37;;;;;;;;;;5084800;28;20180;-53
2023/01/10 03:52:41;;;;;;;10.33;2.80;;;;;;;;;;5080958;28;20183;-53
2023/01/10 03:55:09;;;;;;;4.73;2.77;;;;;;;;;;5085176;28;20190;-53
2023/01/10 03:57:35;;;;;;;5.37;3.43;;;;;;;;;;5083323;28;20640;-53
2023/01/10 04:00:02;;;;;;;7.00;3.13;;;;;;;;;;5083715;28;20186;-53
2023/01/10 04:02:30;;;;;;;3.77;2.57;;;;;;;;;;5077910;28;20172;-53
2023/01/10 04:04:56;;;;;;;6.10;2.70;;;;;;;;;;5078020;28;20213;-53
2023/01/10 04:07:22;;;;;;;3.47;2.40;;;;;;;;;;5081471;28;20173;-53
2023/01/10 04:09:48;;;;;;;4.60;2.40;;;;;;;;;;5083618;28;20156;-53
2023/01/10 04:12:14;;;;;;;6.43;2.50;;;;;;;;;;5084785;28;20183;-52
2023/01/10 04:14:40;;;;;;;5.80;2.90;;;;;;;;;;5082972;28;20180;-53
2023/01/10 04:17:07;;;;;;;7.40;5.87;;;;;;;;;;5082649;28;20218;-53
2023/01/10 04:19:33;;;;;;;5.10;2.67;;;;;;;;;;5083413;28;20630;-53
2023/01/10 04:21:59;;;;;;;4.80;3.00;;;;;;;;;;5090704;28;20205;-53
2023/01/10 04:24:31;;;;;;;8.00;2.77;;;;;;;;;;5058807;28;20741;-53
2023/01/10 04:26:57;;;;;;;4.37;2.13;;;;;;;;;;5088660;28;20294;-53
2023/01/10 04:29:24;;;;;;;5.37;2.60;;;;;;;;;;5087192;28;20618;-53
2023/01/10 04:31:50;;;;;;;5.80;5.30;;;;;;;;;;5083615;28;20582;-53
2023/01/10 04:34:18;;;;;;;3.23;2.30;;;;;;;;;;5083426;28;20194;-53
2023/01/10 04:36:45;;;;;;;7.33;3.10;;;;;;;;;;5083382;28;20183;-53
2023/01/10 04:39:11;;;;;;;6.07;3.10;;;;;;;;;;5084562;28;20190;-53
2023/01/10 04:41:37;;;;;;;5.13;2.60;;;;;;;;;;5086953;28;20191;-53
2023/01/10 04:44:03;;;;;;;2.73;2.53;;;;;;;;;;5085337;28;20172;-53
2023/01/10 04:46:29;;;;;;;5.47;2.67;;;;;;;;;;5085616;28;20486;-53
2023/01/10 04:48:57;;;;;;;7.63;2.93;;;;;;;;;;5085112;28;20179;-53
2023/01/10 04:51:23;;;;;;;6.67;2.33;;;;;;;;;;5084293;28;20176;-53
2023/01/10 04:53:49;;;;;;;8.20;2.83;;;;;;;;;;5085962;28;20176;-53
2023/01/10 04:56:17;;;;;;;5.20;2.33;;;;;;;;;;5089002;28;20211;-53
2023/01/10 04:58:43;;;;;;;4.90;2.60;;;;;;;;;;5072908;28;20705;-53
2023/01/10 05:01:10;;;;;;;4.30;2.47;;;;;;;;;;5085126;28;20215;-53
2023/01/10 05:03:36;;;;;;;6.53;2.77;;;;;;;;;;5075480;28;20219;-53
2023/01/10 05:06:03;;;;;;;4.90;2.70;;;;;;;;;;5062808;28;20202;-53
2023/01/10 05:08:29;;;;;;;6.60;3.00;;;;;;;;;;5075264;28;20777;-53
2023/01/10 05:10:55;;;;;;;4.07;2.83;;;;;;;;;;5066431;28;20172;-53
2023/01/10 05:13:21;;;;;;;6.30;3.00;;;;;;;;;;5084237;28;20837;-53
2023/01/10 05:15:47;;;;;;;4.37;2.50;;;;;;;;;;5088031;28;20185;-52
2023/01/10 05:18:13;;;;;;;4.40;2.50;;;;;;;;;;5085714;28;20207;-53
2023/01/10 05:20:39;;;;;;;8.60;3.17;;;;;;;;;;5087544;28;20609;-53
2023/01/10 05:23:05;;;;;;;3.23;2.33;;;;;;;;;;5085653;28;20638;-53
2023/01/10 05:25:31;;;;;;;8.40;2.40;;;;;;;;;;5084276;28;20684;-52
2023/01/10 05:27:57;;;;;;;4.50;2.43;;;;;;;;;;5079140;27;20721;-53
2023/01/10 05:30:23;;;;;;;7.87;2.63;;;;;;;;;;5061125;28;20355;-53
2023/01/10 05:32:49;;;;;;;5.30;2.40;;;;;;;;;;5078966;28;20181;-53
2023/01/10 05:35:16;;;;;;;4.63;2.30;;;;;;;;;;5065597;28;20177;-53
2023/01/10 05:37:42;;;;;;;6.10;2.63;;;;;;;;;;5068762;28;20627;-53
2023/01/10 05:40:08;;;;;;;5.83;2.47;;;;;;;;;;5071097;28;20173;-53
2023/01/10 05:42:34;;;;;;;10.13;2.27;;;;;;;;;;5065540;28;20235;-52
2023/01/10 05:45:00;;;;;;;5.27;2.60;;;;;;;;;;5066026;28;20187;-53
2023/01/10 05:47:26;;;;;;;9.27;2.90;;;;;;;;;;5060900;28;20176;-53
2023/01/10 05:49:52;;;;;;;4.77;2.57;;;;;;;;;;5061021;28;20199;-53
2023/01/10 05:52:18;;;;;;;6.70;2.70;;;;;;;;;;5060133;28;20666;-53
2023/01/10 05:54:45;;;;;;;7.10;2.80;;;;;;;;;;5056951;28;20455;-53
2023/01/10 05:57:11;;;;;;;7.60;2.73;;;;;;;;;;5064452;28;20176;-53
2023/01/10 05:59:37;;;;;;;7.60;2.80;;;;;;;;;;5066466;28;20267;-53
2023/01/10 06:02:03;;;;;;;8.50;3.17;;;;;;;;;;5065909;28;20176;-54
2023/01/10 06:04:29;;;;;;;4.17;2.47;;;;;;;;;;5059915;28;20189;-54
2023/01/10 06:06:55;;;;;;;6.43;2.43;;;;;;;;;;5064070;28;20230;-54
2023/01/10 06:09:21;;;;;;;10.07;2.57;;;;;;;;;;5057207;28;20231;-54
2023/01/10 06:11:47;;;;;;;7.30;2.47;;;;;;;;;;5066963;28;20176;-54
2023/01/10 06:14:17;;;;;;;5.07;2.30;;;;;;;;;;5071027;28;20172;-54
2023/01/10 06:16:44;;;;;;;6.93;2.43;;;;;;;;;;5070509;28;20277;-54
2023/01/10 06:19:10;;;;;;;4.13;2.30;;;;;;;;;;5058028;28;20185;-54
2023/01/10 06:21:36;;;;;;;8.80;2.57;;;;;;;;;;5043735;28;20458;-54
2023/01/10 06:24:02;;;;;;;3.93;2.67;;;;;;;;;;5065807;28;20169;-54
2023/01/10 06:26:28;;;;;;;9.23;2.90;;;;;;;;;;5067689;28;20678;-54
2023/01/10 06:28:54;;;;;;;4.57;2.67;;;;;;;;;;5084839;27;20227;-54
2023/01/10 06:31:20;;;;;;;6.60;3.53;;;;;;;;;;5061918;28;20168;-54
2023/01/10 06:33:49;;;;;;;5.97;3.07;;;;;;;;;;5077253;28;20205;-54
2023/01/10 06:36:15;;;;;;;5.87;2.90;;;;;;;;;;5083381;28;20634;-54
2023/01/10 06:38:41;;;;;;;6.90;2.77;;;;;;;;;;5060367;28;20190;-54
2023/01/10 06:41:13;;;;;;;10.57;2.97;;;;;;;;;;5085512;28;20191;-53
2023/01/10 06:43:44;;;;;;;7.63;2.30;;;;;;;;;;5083776;28;20191;-54
2023/01/10 06:46:10;;;;;;;8.77;3.37;;;;;;;;;;5083526;28;20252;-54
2023/01/10 06:48:36;;;;;;;7.90;2.70;;;;;;;;;;5076934;28;20180;-54
2023/01/10 06:51:03;;;;;;;7.10;2.97;;;;;;;;;;5082969;28;20491;-55
2023/01/10 06:53:30;;;;;;;6.73;3.07;;;;;;;;;;5079974;28;20392;-54
2023/01/10 06:55:56;;;;;;;11.40;3.03;;;;;;;;;;5085044;28;20184;-54
2023/01/10 06:58:22;;;;;;;10.93;3.87;;;;;;;;;;5084084;28;20221;-54
2023/01/10 07:00:48;;;;;;;3.60;2.67;;;;;;;;;;5083954;28;20184;-54
2023/01/10 07:03:14;;;;;;;9.27;3.37;;;;;;;;;;5080213;28;20172;-54
2023/01/10 07:05:40;;;;;;;6.37;3.10;;;;;;;;;;5076655;28;20230;-54
2023/01/10 07:08:06;;;;;;;7.63;3.30;;;;;;;;;;5076583;28;20168;-54
2023/01/10 07:10:32;;;;;;;5.37;3.33;;;;;;;;;;5054585;28;20184;-54
2023/01/10 07:12:58;;;;;;;7.30;2.60;;;;;;;;;;5071810;28;20706;-54
2023/01/10 07:15:25;;;;;;;5.23;2.37;;;;;;;;;;5079717;28;20183;-54
2023/01/10 07:17:51;;;;;;;6.67;2.73;;;;;;;;;;5065871;28;20365;-54
2023/01/10 07:20:18;;;;;;;8.83;3.10;;;;;;;;;;5081336;28;20176;-54
2023/01/10 07:22:44;;;;;;;8.70;2.83;;;;;;;;;;5071383;28;20171;-54
2023/01/10 07:25:10;;;;;;;8.10;3.23;;;;;;;;;;5053892;28;20242;-54
2023/01/10 07:27:37;;;;;;;6.03;2.80;;;;;;;;;;5060577;28;20212;-54
2023/01/10 07:30:03;;;;;;;9.80;3.23;;;;;;;;;;5078875;28;20510;-54
2023/01/10 07:32:29;;;;;;;8.13;2.57;;;;;;;;;;5081583;28;20667;-54
2023/01/10 07:34:55;;;;;;;8.83;3.00;;;;;;;;;;5080655;28;20214;-54
2023/01/10 07:37:21;;;;;;;7.43;2.60;;;;;;;;;;5070646;28;20180;-54
2023/01/10 07:39:47;;;;;;;5.03;2.47;;;;;;;;;;5059094;28;20176;-54
2023/01/10 07:42:14;;;;;;;13.13;3.10;;;;;;;;;;5071301;28;20548;-54
2023/01/10 07:44:40;;;;;;;5.27;2.30;;;;;;;;;;5071572;28;20260;-54
2023/01/10 07:47:06;;;;;;;5.23;2.80;;;;;;;;;;5072139;28;20269;-54
2023/01/10 07:49:32;;;;;;;10.80;3.90;;;;;;;;;;5071370;28;20194;-54
2023/01/10 07:51:58;;;;;;;11.63;2.87;;;;;;;;;;5076199;28;20176;-54
2023/01/10 07:54:24;;;;;;;8.30;3.10;;;;;;;;;;5080862;28;20718;-54
2023/01/10 07:56:50;;;;;;;9.87;3.07;;;;;;;;;;5066453;28;20522;-54
2023/01/10 07:59:16;;;;;;;9.83;3.00;;;;;;;;;;5069835;28;20615;-54
2023/01/10 08:01:42;;;;;;;7.13;3.10;;;;;;;;;;5089393;28;20172;-54
2023/01/10 08:04:08;;;;;;;5.60;2.53;;;;;;;;;;5089148;28;20206;-54
2023/01/10 08:06:35;;;;;;;3.97;2.30;;;;;;;;;;5085514;28;20273;-54
2023/01/10 08:09:03;;;;;;;9.90;2.90;;;;;;;;;;5079676;28;20175;-54
2023/01/10 08:11:29;;;;;;;9.80;3.17;;;;;;;;;;5086176;28;20176;-54
2023/01/10 08:13:56;;;;;;;15.07;3.97;;;;;;;;;;5080857;28;20168;-54
2023/01/10 08:16:22;;;;;;;8.50;2.67;;;;;;;;;;5084165;28;20622;-54
2023/01/10 08:18:48;;;;;;;8.10;2.67;;;;;;;;;;5077815;28;20660;-54
2023/01/10 08:21:14;;;;;;;7.40;2.93;;;;;;;;;;5087523;28;20646;-54
2023/01/10 08:23:40;;;;;;;10.80;3.60;;;;;;;;;;5081336;28;20653;-54
2023/01/10 08:26:06;;;;;;;7.30;2.90;;;;;;;;;;5075022;28;20192;-54
2023/01/10 08:28:32;;;;;;;5.20;2.73;;;;;;;;;;5073749;27;20780;-54
2023/01/10 08:30:58;;;;;;;9.97;2.77;;;;;;;;;;5078939;28;20906;-54
2023/01/10 08:33:26;;;;;;;9.47;3.27;;;;;;;;;;5081144;28;20255;-54
2023/01/10 08:35:52;;;;;;;5.17;2.60;;;;;;;;;;5076450;28;20184;-54
2023/01/10 08:38:18;;;;;;;7.73;3.33;;;;;;;;;;5074074;28;20176;-54
2023/01/10 08:40:44;;;;;;;7.80;3.27;;;;;;;;;;5072654;28;20663;-54
2023/01/10 08:43:11;;;;;;;9.47;3.27;;;;;;;;;;5072853;28;20630;-54
2023/01/10 08:45:37;;;;;;;7.67;3.20;;;;;;;;;;5081527;28;20253;-54
2023/01/10 08:48:04;;;;;;;7.93;3.03;;;;;;;;;;5075922;28;20175;-54
2023/01/10 08:50:30;;;;;;;9.93;3.13;;;;;;;;;;5063254;28;20180;-54
2023/01/10 08:53:00;;;;;;;8.20;3.13;;;;;;;;;;5083217;28;20175;-54
2023/01/10 08:55:26;;;;;;;10.53;3.40;;;;;;;;;;5077988;28;20262;-54
2023/01/10 08:57:52;;;;;;;6.50;2.60;;;;;;;;;;5076514;28;20525;-54
2023/01/10 09:00:19;;;;;;;8.27;2.73;;;;;;;;;;5075343;28;20184;-54
2023/01/10 09:02:45;;;;;;;5.23;2.90;;;;;;;;;;5083152;28;20982;-54
2023/01/10 09:05:11;;;;;;;4.90;2.43;;;;;;;;;;5063862;28;20295;-54
2023/01/10 09:07:47;;;;;;;9.83;2.97;;;;;;;;;;5083734;28;20179;-54
2023/01/10 09:10:13;;;;;;;10.03;3.03;;;;;;;;;;5085353;28;20179;-54
2023/01/10 09:12:54;;;;;;;9.83;3.17;;;;;;;;;;5080461;28;20184;-54
2023/01/10 09:15:21;;;;;;;8.50;3.60;;;;;;;;;;5068451;28;20172;-54
2023/01/10 09:17:48;;;;;;;11.60;3.43;;;;;;;;;;5073786;28;20461;-54
2023/01/10 09:20:15;;;;;;;5.80;3.90;;;;;;;;;;5067829;28;20161;-54
2023/01/10 09:22:41;;;;;;;10.27;3.63;;;;;;;;;;5077003;28;20190;-54
2023/01/10 09:25:07;;;;;;;9.17;4.67;;;;;;;;;;5086920;28;20203;-54
2023/01/10 09:27:33;;;;;;;11.87;3.40;;;;;;;;;;5084528;28;20191;-54
2023/01/10 09:29:59;;;;;;;8.03;2.53;;;;;;;;;;5085693;28;20610;-54
2023/01/10 09:32:25;;;;;;;12.13;3.40;;;;;;;;;;5080781;28;20740;-54
2023/01/10 09:34:57;;;;;;;9.90;3.70;;;;;;;;;;5084742;28;20180;-54
2023/01/10 09:37:23;;;;;;;6.57;3.43;;;;;;;;;;5081862;28;20171;-54
2023/01/10 09:39:51;;;;;;;10.13;3.43;;;;;;;;;;5075893;28;20176;-54
2023/01/10 09:42:47;;;;;;;7.00;3.27;;;;;;;;;;5060061;28;20185;-54
2023/01/10 09:45:21;;;;;;;11.07;3.57;;;;;;;;;;5013221;28;20700;-54
2023/01/10 09:47:57;;;;;;;11.57;3.20;;;;;;;;;;5083902;28;20275;-54
2023/01/10 09:50:23;;;;;;;13.23;3.80;;;;;;;;;;5077263;28;20649;-54
2023/01/10 09:52:58;;;;;;;8.00;3.10;;;;;;;;;;5078050;28;20164;-54
2023/01/10 09:55:35;;;;;;;10.77;3.37;;;;;;;;;;5072244;28;20175;-53
2023/01/10 09:58:07;;;;;;;7.43;2.97;;;;;;;;;;5065350;28;20188;-54
2023/01/10 10:00:36;;;;;;;10.50;3.30;;;;;;;;;;5079055;28;20652;-54
2023/01/10 10:03:05;;;;;;;10.00;3.30;;;;;;;;;;5077192;28;20672;-54
2023/01/10 10:05:31;;;;;;;15.20;4.13;;;;;;;;;;5077267;28;20682;-53
2023/01/10 10:07:58;;;;;;;14.67;3.50;;;;;;;;;;5081724;28;20175;-54
2023/01/10 10:10:34;;;;;;;11.63;3.87;;;;;;;;;;5078524;28;20184;-54
2023/01/10 10:13:07;;;;;;;9.17;3.13;;;;;;;;;;5081999;28;20183;-53
2023/01/10 10:15:45;;;;;;;8.33;2.93;;;;;;;;;;5082270;28;20179;-53
2023/01/10 10:18:15;;;;;;;8.23;3.33;;;;;;;;;;5083619;28;20207;-54
2023/01/10 10:20:57;;;;;;;12.43;3.30;;;;;;;;;;5084682;28;20632;-53
2023/01/10 10:23:49;;;;;;;9.40;4.00;;;;;;;;;;5074465;28;20480;-54
2023/01/10 10:26:33;;;;;;;11.97;3.03;;;;;;;;;;5077654;28;20187;-53
2023/01/10 10:29:24;;;;;;;15.73;3.53;;;;;;;;;;5085562;28;20976;-53
2023/01/10 10:32:05;;;;;;;6.83;3.50;;;;;;;;;;5083211;28;20175;-53
2023/01/10 10:34:35;;;;;;;7.60;3.03;;;;;;;;;;5084043;28;20164;-53
2023/01/10 10:37:14;;;;;;;10.87;3.83;;;;;;;;;;5083633;28;20205;-53
2023/01/10 10:39:59;;;;;;;9.77;2.87;;;;;;;;;;5080711;28;20670;-53
2023/01/10 10:42:29;;;;;;;10.63;2.87;;;;;;;;;;5071301;28;20573;-54
2023/01/10 10:44:59;;;;;;;10.80;2.50;;;;;;;;;;5066644;28;20468;-54
2023/01/10 10:47:32;;;;;;;7.33;4.00;;;;;;;;;;5080615;28;20160;-53
2023/01/10 10:50:16;;;;;;;10.80;4.43;;;;;;;;;;5082292;28;20238;-53
2023/01/10 10:52:43;;;;;;;13.97;4.00;;;;;;;;;;5075195;28;20229;-53
2023/01/10 10:55:17;;;;;;;12.23;3.80;;;;;;;;;;5057668;28;20176;-53
2023/01/10 10:57:43;;;;;;;7.33;2.90;;;;;;;;;;5047557;28;20233;-53
2023/01/10 11:00:17;;;;;;;8.73;4.27;;;;;;;;;;5083885;28;20176;-53
2023/01/10 11:02:46;;;;;;;9.47;3.80;;;;;;;;;;5075464;28;20305;-53
2023/01/10 11:05:20;;;;;;;6.97;2.77;;;;;;;;;;5067542;28;20196;-53
2023/01/10 11:07:46;;;;;;;12.67;3.80;;;;;;;;;;5064767;28;20704;-53
2023/01/10 11:10:37;;;;;;;8.90;3.40;;;;;;;;;;5085259;28;20172;-53
2023/01/10 11:13:04;;;;;;;12.10;3.50;;;;;;;;;;5045060;28;20172;-53
2023/01/10 11:15:35;;;;;;;12.27;3.40;;;;;;;;;;5083644;28;20184;-53
2023/01/10 11:18:05;;;;;;;8.83;3.80;;;;;;;;;;5072315;28;20319;-54
2023/01/10 11:20:31;;;;;;;9.17;4.27;;;;;;;;;;5065003;28;20164;-53
2023/01/10 11:22:57;;;;;;;12.17;3.80;;;;;;;;;;5071338;28;20190;-53
2023/01/10 11:25:23;;;;;;;10.47;3.30;;;;;;;;;;5082621;28;20245;-53
2023/01/10 11:27:51;;;;;;;12.93;3.70;;;;;;;;;;5070456;28;20198;-53
2023/01/10 11:30:21;;;;;;;6.87;2.77;;;;;;;;;;5078068;28;20255;-53
2023/01/10 11:32:53;;;;;;;10.73;3.43;;;;;;;;;;5077727;28;20602;-53
2023/01/10 11:35:25;;;;;;;8.73;3.40;;;;;;;;;;5081861;28;20240;-52
2023/01/10 11:38:11;;;;;;;17.77;3.77;;;;;;;;;;5079415;28;20637;-52
2023/01/10 11:40:38;;;;;;;8.73;3.13;;;;;;;;;;5063355;28;20195;-52
2023/01/10 11:43:23;;;;;;;13.43;3.23;;;;;;;;;;5081239;28;20180;-53
2023/01/10 11:45:53;;;;;;;15.60;3.37;;;;;;;;;;5077481;28;20837;-52
2023/01/10 11:48:23;;;;;;;14.23;3.20;;;;;;;;;;5077681;28;20180;-53
2023/01/10 11:50:51;;;;;;;8.63;3.60;;;;;;;;;;5082767;28;20184;-52
2023/01/10 11:53:30;;;;;;;9.50;2.70;;;;;;;;;;5073660;28;20207;-52
2023/01/10 11:55:56;;;;;;;7.17;2.73;;;;;;;;;;5084127;28;20168;-52
2023/01/10 11:58:22;;;;;;;9.80;3.87;;;;;;;;;;5079620;28;20180;-52
2023/01/10 12:00:49;;;;;;;6.47;2.90;;;;;;;;;;5069730;28;20180;-52
2023/01/10 12:03:28;;;;;;;13.60;3.57;;;;;;;;;;5069946;28;20209;-52
2023/01/10 12:06:03;;;;;;;15.87;3.77;;;;;;;;;;5070715;28;20673;-53
2023/01/10 12:08:29;;;;;;;8.23;3.17;;;;;;;;;;5081098;28;20335;-53
2023/01/10 12:10:56;;;;;;;11.63;3.50;;;;;;;;;;5074537;28;20261;-53
2023/01/10 12:13:23;;;;;;;11.37;3.50;;;;;;;;;;5080571;28;20299;-53
2023/01/10 12:15:49;;;;;;;8.20;3.07;;;;;;;;;;5079913;28;20180;-53
2023/01/10 12:18:18;;;;;;;13.30;3.30;;;;;;;;;;5070722;28;20206;-53
2023/01/10 12:20:46;;;;;;;9.83;3.27;;;;;;;;;;5066122;28;20237;-53
2023/01/10 12:23:22;;;;;;;9.47;2.97;;;;;;;;;;5075548;28;20172;-53
2023/01/10 12:25:48;;;;;;;7.73;3.03;;;;;;;;;;5083953;28;20205;-53
2023/01/10 12:28:20;;;;;;;8.07;2.70;;;;;;;;;;5082470;27;20222;-53
2023/01/10 12:30:48;;;;;;;8.77;3.67;;;;;;;;;;5080146;28;20192;-53
2023/01/10 12:33:33;;;;;;;6.33;2.97;;;;;;;;;;5074546;28;20259;-52
2023/01/10 12:36:05;;;;;;;7.00;3.53;;;;;;;;;;5077589;28;20268;-53
2023/01/10 12:44:26;;;;;;;12.03;3.70;;;;;;;;;;5067559;28;20708;-53
2023/01/10 12:47:01;;;;;;;11.40;3.30;;;;;;;;;;5073580;28;20176;-53
2023/01/10 12:49:36;;;;;;;7.13;3.20;;;;;;;;;;5070179;28;20703;-53
2023/01/10 12:52:05;;;;;;;16.40;4.07;;;;;;;;;;5078210;28;20171;-53
2023/01/10 12:54:34;;;;;;;10.77;2.90;;;;;;;;;;5085842;28;20205;-53
2023/01/10 12:57:05;;;;;;;9.13;3.37;;;;;;;;;;5084864;28;20207;-53
2023/01/10 12:59:36;;;;;;;11.17;4.43;;;;;;;;;;5088473;28;20673;-53
2023/01/10 13:02:03;;;;;;;8.73;2.67;;;;;;;;;;5078444;28;20570;-53
2023/01/10 13:04:31;;;;;;;14.73;3.57;;;;;;;;;;5085153;28;20172;-53
2023/01/10 13:06:57;;;;;;;8.03;2.77;;;;;;;;;;5081407;28;20181;-53
2023/01/10 13:09:27;;;;;;;9.00;3.13;;;;;;;;;;5084708;28;20172;-53
2023/01/10 13:11:53;;;;;;;7.27;3.20;;;;;;;;;;5085567;28;20189;-53
2023/01/10 13:14:22;;;;;;;9.90;3.37;;;;;;;;;;5081496;28;20199;-53
2023/01/10 13:16:50;;;;;;;11.40;2.87;;;;;;;;;;5084335;28;20701;-53
2023/01/10 13:19:20;;;;;;;11.30;2.50;;;;;;;;;;5073420;28;20584;-53
2023/01/10 13:21:46;;;;;;;7.93;2.63;;;;;;;;;;5084862;28;20172;-52
2023/01/10 13:24:18;;;;;;;10.73;3.27;;;;;;;;;;5082233;28;20194;-52
2023/01/10 13:26:53;;;;;;;7.23;2.67;;;;;;;;;;5083725;28;20871;-52
2023/01/10 13:29:47;;;;;;;9.13;3.40;;;;;;;;;;5075720;27;20241;-52
2023/01/10 13:32:24;;;;;;;10.80;3.57;;;;;;;;;;5078174;28;20219;-52
2023/01/10 13:34:51;;;;;;;7.03;2.63;;;;;;;;;;5087442;28;20681;-53
2023/01/10 13:37:29;;;;;;;7.47;3.10;;;;;;;;;;5079014;28;20534;-52
2023/01/10 13:39:57;;;;;;;8.03;2.93;;;;;;;;;;5077575;28;20184;-52
2023/01/10 13:45:12;;;;;;;10.60;3.37;;;;;;;;;;5083514;28;20405;-53
2023/01/10 13:47:47;;;;;;;8.57;2.70;;;;;;;;;;5072758;28;20180;-53
2023/01/10 13:50:22;;;;;;;7.03;2.53;;;;;;;;;;5076675;28;20168;-52
2023/01/10 13:52:52;;;;;;;9.63;2.90;;;;;;;;;;5080034;28;20614;-53
2023/01/10 13:55:27;;;;;;;11.77;3.27;;;;;;;;;;5085361;28;21613;-52
2023/01/10 13:57:55;;;;;;;8.53;2.70;;;;;;;;;;5078719;28;20232;-53
2023/01/10 14:03:29;;;;;;;8.10;2.57;;;;;;;;;;5082893;28;20235;-53
2023/01/10 14:05:55;;;;;;;12.47;3.30;;;;;;;;;;5080695;28;20196;-52
2023/01/10 14:08:22;;;;;;;9.87;3.40;;;;;;;;;;5074674;28;20180;-52
2023/01/10 14:11:03;;;;;;;5.83;3.23;;;;;;;;;;5078943;28;20250;-53
2023/01/10 14:13:30;;;;;;;8.70;2.73;;;;;;;;;;5076414;28;20175;-53
2023/01/10 14:15:56;;;;;;;8.17;2.97;;;;;;;;;;5082258;28;20177;-53
2023/01/10 14:18:24;;;;;;;17.00;3.43;;;;;;;;;;5060518;28;20394;-52
2023/01/10 14:20:58;;;;;;;6.53;2.87;;;;;;;;;;5063101;28;20216;-52
2023/01/10 14:23:28;;;;;;;13.90;3.00;;;;;;;;;;5081492;28;20395;-53
2023/01/10 14:25:55;;;;;;;7.37;2.87;;;;;;;;;;5078322;28;20736;-53
2023/01/10 14:28:23;;;;;;;4.93;2.53;;;;;;;;;;5078456;28;20222;-52
2023/01/10 14:31:00;;;;;;;11.60;2.70;;;;;;;;;;5076043;28;20594;-52
2023/01/10 14:33:26;;;;;;;9.93;2.90;;;;;;;;;;5072571;28;20681;-52
2023/01/10 14:35:55;;;;;;;8.17;3.00;;;;;;;;;;5080808;28;20536;-52
2023/01/10 14:38:24;;;;;;;7.03;3.30;;;;;;;;;;5074942;28;20179;-53
2023/01/10 14:40:52;;;;;;;5.20;2.20;;;;;;;;;;5076395;28;20240;-53
2023/01/10 14:43:19;;;;;;;9.13;2.80;;;;;;;;;;5078572;28;20225;-52
2023/01/10 14:46:04;;;;;;;8.07;2.43;;;;;;;;;;5067146;28;20212;-52
2023/01/10 14:48:34;;;;;;;8.90;2.57;;;;;;;;;;5080879;28;20548;-52
2023/01/10 14:51:10;;;;;;;12.40;3.13;;;;;;;;;;5088989;28;20183;-53
2023/01/10 14:53:36;;;;;;;7.63;3.30;;;;;;;;;;5081185;28;20187;-52
2023/01/10 14:56:02;;;;;;;6.20;2.67;;;;;;;;;;5066890;28;20180;-52
2023/01/10 14:58:28;;;;;;;8.50;2.77;;;;;;;;;;5069936;28;20165;-52
2023/01/10 15:00:54;;;;;;;9.93;2.90;;;;;;;;;;5066104;28;20172;-52
2023/01/10 15:03:23;;;;;;;6.27;3.13;;;;;;;;;;5066100;28;20181;-52
2023/01/10 15:05:50;;;;;;;10.23;3.23;;;;;;;;;;5066239;28;20665;-52
2023/01/10 15:08:24;;;;;;;8.60;2.57;;;;;;;;;;5090576;28;20623;-52